createdAt,value
2019-02-23T00:01:05.227Z,12.97
2019-02-23T00:03:34.790Z,13.97
2019-02-23T00:06:04.262Z,10.10
2019-02-23T00:08:33.529Z,12.57
2019-02-23T00:11:02.859Z,12.03
2019-02-23T00:13:32.223Z,10.33
2019-02-23T00:16:01.529Z,8.63
2019-02-23T00:18:31.045Z,17.70
2019-02-23T00:21:00.336Z,11.27
2019-02-23T00:23:29.658Z,9.97
2019-02-23T00:25:58.852Z,8.80
2019-02-23T00:28:28.350Z,6.80
2019-02-23T00:30:57.636Z,9.70
2019-02-23T00:33:26.829Z,10.10
2019-02-23T00:35:56.615Z,10.43
2019-02-23T00:38:26.013Z,12.30
2019-02-23T00:40:55.541Z,12.60
2019-02-23T00:43:25.267Z,13.23
2019-02-23T00:45:54.562Z,11.40
2019-02-23T00:48:23.832Z,10.60
2019-02-23T00:50:53.073Z,12.73
2019-02-23T00:53:22.347Z,12.43
2019-02-23T00:55:51.654Z,11.07
2019-02-23T00:58:21.033Z,9.47
2019-02-23T01:00:50.235Z,12.47
2019-02-23T01:03:19.621Z,11.47
2019-02-23T01:05:48.779Z,14.20
2019-02-23T01:08:18.191Z,11.97
2019-02-23T01:10:57.770Z,13.83
2019-02-23T01:13:19.060Z,10.57
2019-02-23T01:15:48.405Z,11.43
2019-02-23T01:18:17.647Z,13.03
2019-02-23T01:20:46.901Z,10.13
2019-02-23T01:23:16.148Z,10.23
2019-02-23T01:25:45.492Z,9.73
2019-02-23T01:28:14.788Z,11.90
2019-02-23T01:30:44.096Z,13.33
2019-02-23T01:33:13.571Z,8.73
2019-02-23T01:35:42.897Z,11.93
2019-02-23T01:38:12.097Z,10.60
2019-02-23T01:40:41.328Z,14.13
2019-02-23T01:43:10.559Z,11.97
2019-02-23T01:45:42.601Z,12.60
2019-02-23T01:48:10.849Z,11.20
2019-02-23T01:50:40.229Z,12.43
2019-02-23T01:53:09.507Z,12.70
2019-02-23T01:55:38.743Z,13.97
2019-02-23T01:58:08.048Z,10.90
2019-02-23T02:00:37.451Z,11.83
2019-02-23T02:03:06.737Z,13.00
2019-02-23T02:05:36.036Z,11.17
2019-02-23T02:08:05.308Z,10.83
2019-02-23T02:10:34.802Z,8.60
2019-02-23T02:13:04.243Z,9.97
2019-02-23T02:15:34.470Z,8.17
2019-02-23T02:18:03.819Z,9.00
2019-02-23T02:20:32.983Z,7.70
2019-02-23T02:23:02.237Z,11.40
2019-02-23T02:25:31.533Z,9.80
2019-02-23T02:28:00.802Z,13.13
2019-02-23T02:30:30.029Z,13.37
2019-02-23T02:32:59.356Z,14.37
2019-02-23T02:35:28.590Z,12.60
2019-02-23T02:37:57.917Z,13.77
2019-02-23T02:40:27.524Z,15.87
2019-02-23T02:42:56.879Z,11.63
2019-02-23T02:45:26.258Z,10.90
2019-02-23T02:47:55.592Z,12.50
2019-02-23T02:50:25.022Z,13.33
2019-02-23T02:52:54.613Z,9.90
2019-02-23T02:55:23.937Z,10.20
2019-02-23T02:57:53.206Z,10.23
2019-02-23T03:00:22.794Z,10.03
2019-02-23T03:02:52.017Z,9.67
2019-02-23T03:05:21.247Z,12.93
2019-02-23T03:07:50.466Z,9.73
2019-02-23T03:10:19.640Z,9.37
2019-02-23T03:12:48.932Z,8.60
2019-02-23T03:15:18.444Z,12.47
2019-02-23T03:17:47.741Z,11.33
2019-02-23T03:20:16.985Z,12.77
2019-02-23T03:22:46.284Z,13.63
2019-02-23T03:25:15.557Z,14.47
2019-02-23T03:27:44.695Z,16.47
2019-02-23T03:30:13.880Z,14.93
2019-02-23T03:32:43.041Z,15.50
2019-02-23T03:35:12.229Z,14.30
2019-02-23T03:37:41.435Z,14.20
2019-02-23T03:40:10.739Z,11.47
2019-02-23T03:42:39.891Z,10.70
2019-02-23T03:45:11.099Z,12.97
2019-02-23T03:47:40.424Z,14.37
2019-02-23T03:50:09.577Z,15.17
2019-02-23T03:52:38.867Z,16.93
2019-02-23T03:55:08.140Z,14.53
2019-02-23T03:57:37.319Z,18.17
2019-02-23T04:00:07.677Z,15.70
2019-02-23T04:02:36.913Z,17.53
2019-02-23T04:05:06.974Z,13.83
2019-02-23T04:07:36.151Z,13.67
2019-02-23T04:10:05.918Z,15.23
2019-02-23T04:12:35.453Z,13.83
2019-02-23T04:15:04.720Z,13.93
2019-02-23T04:17:33.959Z,12.77
2019-02-23T04:20:03.304Z,14.87
2019-02-23T04:22:32.660Z,16.23
2019-02-23T04:25:01.841Z,16.47
2019-02-23T04:27:31.091Z,15.90
2019-02-23T04:30:00.460Z,16.23
2019-02-23T04:32:29.683Z,14.57
2019-02-23T04:34:58.891Z,17.40
2019-02-23T04:37:28.148Z,17.03
2019-02-23T04:39:57.508Z,18.53
2019-02-23T04:42:26.683Z,17.10
2019-02-23T04:44:55.838Z,14.77
2019-02-23T04:47:25.136Z,17.20
2019-02-23T04:49:56.865Z,13.67
2019-02-23T04:52:26.013Z,17.73
2019-02-23T04:54:55.296Z,14.27
2019-02-23T04:57:24.520Z,17.83
2019-02-23T04:59:53.937Z,16.17
2019-02-23T05:02:23.210Z,18.43
2019-02-23T05:04:52.363Z,16.07
2019-02-23T05:07:21.670Z,17.17
2019-02-23T05:09:50.824Z,18.00
2019-02-23T05:12:20.065Z,19.93
2019-02-23T05:14:49.514Z,17.57
2019-02-23T05:17:18.694Z,18.13
2019-02-23T05:19:47.937Z,17.70
2019-02-23T05:22:17.139Z,19.80
2019-02-23T05:24:46.349Z,18.57
2019-02-23T05:27:15.536Z,16.03
2019-02-23T05:29:44.721Z,17.53
2019-02-23T05:32:13.929Z,15.63
2019-02-23T05:34:43.135Z,19.13
2019-02-23T05:37:12.308Z,17.80
2019-02-23T05:39:41.482Z,18.23
2019-02-23T05:42:10.735Z,19.57
2019-02-23T05:44:40.025Z,19.27
2019-02-23T05:47:09.237Z,16.50
2019-02-23T05:49:38.413Z,20.50
2019-02-23T05:52:07.645Z,19.30
2019-02-23T05:54:36.873Z,17.63
2019-02-23T05:57:06.108Z,16.60
2019-02-23T05:59:35.261Z,17.40
2019-02-23T06:02:04.475Z,17.20
2019-02-23T06:04:34.644Z,17.20
2019-02-23T06:07:03.848Z,18.93
2019-02-23T06:09:33.232Z,19.10
2019-02-23T06:12:02.506Z,17.10
2019-02-23T06:14:31.689Z,17.70
2019-02-23T06:17:03.842Z,18.00
2019-02-23T06:19:32.049Z,14.90
2019-02-23T06:22:01.253Z,17.13
2019-02-23T06:24:30.485Z,17.70
2019-02-23T06:26:59.632Z,18.43
2019-02-23T06:29:28.924Z,19.00
2019-02-23T06:31:58.081Z,21.03
2019-02-23T06:34:27.350Z,17.60
2019-02-23T06:36:56.541Z,20.33
2019-02-23T06:39:25.696Z,21.03
2019-02-23T06:42:11.209Z,18.90
2019-02-23T06:44:40.450Z,18.23
2019-02-23T06:47:09.710Z,20.13
2019-02-23T06:49:39.022Z,19.33
2019-02-23T06:52:08.249Z,20.67
2019-02-23T06:54:37.450Z,20.43
2019-02-23T06:57:06.715Z,20.23
2019-02-23T06:59:35.950Z,19.03
2019-02-23T07:02:05.211Z,19.30
2019-02-23T07:04:34.572Z,18.47
2019-02-23T07:07:03.772Z,18.33
2019-02-23T07:09:32.944Z,19.63
2019-02-23T07:12:02.221Z,21.67
2019-02-23T07:14:31.523Z,20.83
2019-02-23T07:17:00.748Z,17.87
2019-02-23T07:19:30.031Z,18.27
2019-02-23T07:21:59.337Z,19.37
2019-02-23T07:24:28.698Z,18.40
2019-02-23T07:26:58.263Z,17.50
2019-02-23T07:29:27.528Z,17.97
2019-02-23T07:31:56.785Z,17.27
2019-02-23T07:34:26.005Z,14.57
2019-02-23T07:36:55.309Z,17.90
2019-02-23T07:39:24.631Z,19.20
2019-02-23T07:41:53.959Z,18.37
2019-02-23T07:44:23.152Z,15.97
2019-02-23T07:46:52.636Z,16.43
2019-02-23T07:49:22.160Z,15.93
2019-02-23T07:51:51.382Z,14.83
2019-02-23T07:54:20.668Z,17.40
2019-02-23T07:56:49.869Z,18.00
2019-02-23T07:59:19.096Z,17.40
2019-02-23T08:01:48.383Z,17.23
2019-02-23T08:04:17.617Z,18.10
2019-02-23T08:06:46.913Z,19.03
2019-02-23T08:09:16.100Z,17.97
2019-02-23T08:11:45.372Z,17.30
2019-02-23T08:14:14.777Z,17.40
2019-02-23T08:16:44.070Z,16.23
2019-02-23T08:19:13.394Z,16.77
2019-02-23T08:21:42.792Z,16.50
2019-02-23T08:24:12.228Z,16.57
2019-02-23T08:26:41.511Z,18.20
2019-02-23T08:29:10.795Z,16.00
2019-02-23T08:31:39.981Z,15.33
2019-02-23T08:34:09.268Z,16.60
2019-02-23T08:36:38.444Z,16.67
2019-02-23T08:39:07.704Z,15.50
2019-02-23T08:41:36.963Z,15.83
2019-02-23T08:44:06.283Z,15.80
2019-02-23T08:46:35.688Z,16.10
2019-02-23T08:49:04.980Z,15.63
2019-02-23T08:51:34.248Z,15.23
2019-02-23T08:54:03.635Z,15.73
2019-02-23T08:56:33.060Z,15.03
2019-02-23T08:59:04.648Z,14.80
2019-02-23T09:01:33.908Z,15.17
2019-02-23T09:04:03.072Z,15.33
2019-02-23T09:06:32.288Z,14.87
2019-02-23T09:09:01.459Z,14.73
2019-02-23T09:11:30.699Z,15.37
2019-02-23T09:13:59.961Z,15.57
2019-02-23T09:16:29.192Z,15.50
2019-02-23T09:18:58.648Z,15.13
2019-02-23T09:21:28.238Z,14.53
2019-02-23T09:23:57.487Z,13.70
2019-02-23T09:26:26.779Z,15.13
2019-02-23T09:28:56.077Z,13.57
2019-02-23T09:31:25.436Z,14.30
2019-02-23T09:33:54.599Z,13.27
2019-02-23T09:36:23.901Z,13.53
2019-02-23T09:38:53.083Z,13.03
2019-02-23T09:41:22.398Z,13.93
2019-02-23T09:43:51.591Z,11.40
2019-02-23T09:46:20.796Z,12.23
2019-02-23T09:48:50.034Z,12.60
2019-02-23T09:51:19.306Z,12.27
2019-02-23T09:53:48.637Z,11.97
2019-02-23T09:56:17.843Z,12.03
2019-02-23T09:58:47.126Z,11.70
2019-02-23T10:01:16.394Z,11.10
2019-02-23T10:03:46.050Z,11.37
2019-02-23T10:06:15.344Z,11.50
2019-02-23T10:08:44.567Z,11.47
2019-02-23T10:11:13.736Z,11.20
2019-02-23T10:13:43.026Z,10.07
2019-02-23T10:16:12.235Z,10.93
2019-02-23T10:18:41.468Z,10.33
2019-02-23T10:21:10.939Z,10.27
2019-02-23T10:23:40.189Z,9.03
2019-02-23T10:26:09.567Z,9.50
2019-02-23T10:28:38.850Z,10.07
2019-02-23T10:31:08.111Z,9.00
2019-02-23T10:33:47.189Z,8.80
2019-02-23T10:36:08.871Z,10.13
2019-02-23T10:38:38.091Z,8.50
2019-02-23T10:41:07.736Z,8.20
2019-02-23T10:43:37.031Z,8.47
2019-02-23T10:46:06.220Z,8.37
2019-02-23T10:48:35.479Z,9.40
2019-02-23T10:51:04.674Z,9.97
2019-02-23T10:53:33.876Z,10.50
2019-02-23T10:56:03.178Z,10.90
2019-02-23T10:58:32.369Z,11.20
2019-02-23T11:01:01.624Z,9.40
2019-02-23T11:03:30.808Z,6.63
2019-02-23T11:06:00.681Z,7.00
2019-02-23T11:08:29.879Z,6.63
2019-02-23T11:10:59.418Z,8.37
2019-02-23T11:13:28.704Z,8.97
2019-02-23T11:15:58.616Z,6.67
2019-02-23T11:18:27.835Z,10.90
2019-02-23T11:20:57.261Z,22.03
2019-02-23T11:23:26.493Z,10.13
2019-02-23T11:25:55.857Z,7.33
2019-02-23T11:28:25.326Z,7.13
2019-02-23T11:30:54.604Z,6.77
2019-02-23T11:33:23.948Z,7.10
2019-02-23T11:35:53.152Z,6.77
2019-02-23T11:38:22.325Z,6.77
2019-02-23T11:40:51.555Z,6.93
2019-02-23T11:43:20.728Z,7.20
2019-02-23T11:45:50.133Z,6.17
2019-02-23T11:48:19.637Z,5.80
2019-02-23T11:50:48.897Z,5.63
2019-02-23T11:53:18.076Z,5.30
2019-02-23T11:55:47.395Z,6.47
2019-02-23T11:58:16.685Z,5.53
2019-02-23T12:00:45.970Z,5.57
2019-02-23T12:03:15.423Z,6.23
2019-02-23T12:05:44.677Z,5.40
2019-02-23T12:08:13.992Z,5.80
2019-02-23T12:10:43.284Z,5.40
2019-02-23T12:13:12.677Z,5.13
2019-02-23T12:15:44.512Z,5.57
2019-02-23T12:18:13.801Z,5.53
2019-02-23T12:20:43.088Z,4.80
2019-02-23T12:23:12.488Z,4.60
2019-02-23T12:25:41.817Z,4.50
2019-02-23T12:28:11.083Z,4.77
2019-02-23T12:30:40.268Z,6.57
2019-02-23T12:33:09.604Z,5.07
2019-02-23T12:35:39.753Z,5.47
2019-02-23T12:38:09.049Z,4.00
2019-02-23T12:40:58.992Z,4.67
2019-02-23T12:43:28.542Z,3.63
2019-02-23T12:45:57.722Z,4.43
2019-02-23T12:48:26.971Z,4.07
2019-02-23T12:50:56.215Z,3.70
2019-02-23T12:53:25.620Z,4.80
2019-02-23T12:56:11.328Z,3.83
2019-02-23T12:58:40.697Z,3.50
2019-02-23T13:01:09.958Z,3.87
2019-02-23T13:03:39.200Z,3.30
2019-02-23T13:06:08.462Z,4.17
2019-02-23T13:09:24.038Z,3.57
2019-02-23T13:12:00.936Z,3.40
2019-02-23T13:14:41.544Z,3.00
2019-02-23T13:17:23.850Z,3.40
2019-02-23T13:20:25.379Z,3.13
2019-02-23T13:23:31.758Z,10.37
2019-02-23T13:26:27.084Z,9.63
2019-02-23T13:29:38.771Z,6.07
2019-02-23T13:32:41.479Z,3.93
2019-02-23T13:35:50.418Z,3.67
2019-02-23T13:39:00.546Z,4.93
2019-02-23T13:42:22.769Z,3.17
2019-02-23T13:45:31.110Z,5.70
2019-02-23T13:48:30.824Z,4.47
2019-02-23T13:51:20.289Z,4.40
2019-02-23T13:54:15.725Z,3.30
2019-02-23T13:57:11.894Z,4.17
2019-02-23T14:00:18.153Z,4.40
2019-02-23T14:03:32.238Z,3.93
2019-02-23T14:06:45.653Z,5.40
2019-02-23T14:10:02.248Z,3.47
2019-02-23T14:13:04.306Z,3.93
2019-02-23T14:16:23.763Z,3.63
2019-02-23T14:19:46.455Z,3.67
2019-02-23T14:22:47.176Z,3.97
2019-02-23T14:25:41.763Z,3.17
2019-02-23T14:28:55.214Z,3.70
2019-02-23T14:31:52.257Z,4.37
2019-02-23T14:34:53.752Z,3.40
2019-02-23T14:37:55.107Z,2.77
2019-02-23T14:40:56.994Z,4.93
2019-02-23T14:44:03.408Z,2.93
2019-02-23T14:46:59.236Z,2.77
2019-02-23T14:50:05.374Z,2.90
2019-02-23T14:52:53.559Z,6.80
2019-02-23T14:55:58.564Z,2.67
2019-02-23T14:58:58.012Z,5.30
2019-02-23T15:02:10.105Z,3.10
2019-02-23T15:05:17.013Z,3.40
2019-02-23T15:08:33.664Z,4.10
2019-02-23T15:11:23.218Z,3.10
2019-02-23T15:14:46.220Z,3.27
2019-02-23T15:17:43.093Z,2.40
2019-02-23T15:20:36.596Z,3.00
2019-02-23T15:23:16.135Z,3.30
2019-02-23T15:26:04.343Z,5.27
2019-02-23T15:29:07.330Z,4.43
2019-02-23T15:32:16.275Z,3.20
2019-02-23T15:35:08.043Z,2.90
2019-02-23T15:38:07.945Z,3.67
2019-02-23T15:41:14.439Z,5.40
2019-02-23T15:44:17.184Z,3.60
2019-02-23T15:47:19.406Z,4.17
2019-02-23T15:49:49.240Z,4.50
2019-02-23T15:52:18.709Z,3.67
2019-02-23T15:54:48.012Z,4.50
2019-02-23T15:57:17.657Z,5.00
2019-02-23T15:59:47.240Z,4.87
2019-02-23T16:02:16.842Z,4.17
2019-02-23T16:04:46.188Z,3.90
2019-02-23T16:07:15.991Z,4.40
2019-02-23T16:09:45.372Z,4.93
2019-02-23T16:12:14.658Z,4.70
2019-02-23T16:14:43.832Z,3.90
2019-02-23T16:17:13.042Z,3.40
2019-02-23T16:19:42.319Z,5.20
2019-02-23T16:22:11.552Z,7.03
2019-02-23T16:24:40.886Z,4.47
2019-02-23T16:27:10.373Z,4.20
2019-02-23T16:29:39.678Z,7.67
2019-02-23T16:32:08.986Z,5.40
2019-02-23T16:34:38.254Z,4.47
2019-02-23T16:37:07.585Z,4.43
2019-02-23T16:39:36.786Z,5.67
2019-02-23T16:42:06.055Z,3.90
2019-02-23T16:44:35.341Z,4.73
2019-02-23T16:47:04.708Z,5.50
2019-02-23T16:49:33.896Z,3.40
2019-02-23T16:52:03.202Z,4.07
2019-02-23T16:54:32.475Z,4.00
2019-02-23T16:57:01.870Z,8.20
2019-02-23T16:59:31.485Z,4.30
2019-02-23T17:02:00.926Z,4.53
2019-02-23T17:04:30.179Z,4.07
2019-02-23T17:06:59.366Z,3.97
2019-02-23T17:09:28.655Z,3.57
2019-02-23T17:11:57.876Z,4.93
2019-02-23T17:14:27.105Z,4.30
2019-02-23T17:16:56.308Z,3.90
2019-02-23T17:19:27.393Z,4.77
2019-02-23T17:21:56.668Z,5.70
2019-02-23T17:24:26.051Z,5.70
2019-02-23T17:26:55.356Z,4.23
2019-02-23T17:29:24.616Z,5.10
2019-02-23T17:31:54.260Z,3.30
2019-02-23T17:34:23.515Z,5.37
2019-02-23T17:36:52.791Z,3.43
2019-02-23T17:39:22.039Z,5.53
2019-02-23T17:41:51.274Z,3.43
2019-02-23T17:44:20.641Z,5.03
2019-02-23T17:46:50.189Z,4.23
2019-02-23T17:49:19.761Z,3.57
2019-02-23T17:51:50.385Z,2.87
2019-02-23T17:54:19.695Z,4.10
2019-02-23T17:56:51.543Z,3.73
2019-02-23T17:59:20.779Z,4.03
2019-02-23T18:01:51.975Z,6.13
2019-02-23T18:04:21.283Z,6.10
2019-02-23T18:06:50.586Z,5.63
2019-02-23T18:09:19.848Z,5.30
2019-02-23T18:11:49.130Z,5.67
2019-02-23T18:14:18.579Z,4.23
2019-02-23T18:16:48.057Z,5.20
2019-02-23T18:19:17.319Z,5.10
2019-02-23T18:21:46.633Z,6.77
2019-02-23T18:24:15.842Z,4.30
2019-02-23T18:26:45.080Z,4.83
2019-02-23T18:29:14.271Z,5.43
2019-02-23T18:31:43.512Z,3.87
2019-02-23T18:34:12.728Z,4.10
2019-02-23T18:36:41.976Z,4.80
2019-02-23T18:39:11.258Z,3.87
2019-02-23T18:41:40.542Z,5.50
2019-02-23T18:44:09.879Z,3.47
2019-02-23T18:46:39.179Z,4.53
2019-02-23T18:49:08.460Z,4.47
2019-02-23T18:51:37.764Z,5.73
2019-02-23T18:54:07.341Z,5.70
2019-02-23T18:56:36.661Z,5.33
2019-02-23T18:59:05.964Z,3.90
2019-02-23T19:01:35.168Z,5.10
2019-02-23T19:04:04.454Z,3.53
2019-02-23T19:06:33.785Z,3.70
2019-02-23T19:09:03.108Z,5.27
2019-02-23T19:11:32.334Z,4.63
2019-02-23T19:14:01.808Z,3.17
2019-02-23T19:16:31.291Z,3.30
2019-02-23T19:19:00.703Z,2.70
2019-02-23T19:21:29.956Z,3.60
2019-02-23T19:23:59.251Z,3.23
2019-02-23T19:26:28.407Z,2.97
2019-02-23T19:28:57.723Z,2.77
2019-02-23T19:31:26.952Z,3.00
2019-02-23T19:33:56.266Z,2.33
2019-02-23T19:36:25.515Z,3.90
2019-02-23T19:38:54.843Z,4.33
2019-02-23T19:41:24.182Z,2.60
2019-02-23T19:43:53.525Z,4.10
2019-02-23T19:46:23.326Z,2.70
2019-02-23T19:48:52.682Z,3.70
2019-02-23T19:51:22.056Z,4.20
2019-02-23T19:53:51.634Z,5.40
2019-02-23T19:56:20.989Z,4.37
2019-02-23T19:58:50.391Z,3.40
2019-02-23T20:01:20.736Z,3.60
2019-02-23T20:03:50.081Z,3.70
2019-02-23T20:06:19.608Z,3.77
2019-02-23T20:08:48.951Z,3.73
2019-02-23T20:11:18.131Z,5.90
2019-02-23T20:13:47.438Z,4.83
2019-02-23T20:16:16.760Z,5.50
2019-02-23T20:18:46.100Z,3.93
2019-02-23T20:21:15.468Z,3.10
2019-02-23T20:23:44.930Z,4.13
2019-02-23T20:26:16.365Z,3.77
2019-02-23T20:28:45.463Z,4.30
2019-02-23T20:31:14.826Z,3.37
2019-02-23T20:33:44.153Z,5.60
2019-02-23T20:36:13.507Z,4.03
2019-02-23T20:38:42.781Z,5.83
2019-02-23T20:41:12.152Z,6.30
2019-02-23T20:43:41.581Z,4.93
2019-02-23T20:46:11.048Z,5.00
2019-02-23T20:48:40.366Z,7.60
2019-02-23T20:51:09.641Z,4.90
2019-02-23T20:53:38.929Z,5.10
2019-02-23T20:56:08.305Z,8.47
2019-02-23T20:58:37.529Z,4.60
2019-02-23T21:01:06.921Z,5.00
2019-02-23T21:03:36.077Z,3.57
2019-02-23T21:06:05.395Z,5.00
2019-02-23T21:08:34.812Z,4.47
2019-02-23T21:11:04.438Z,3.63
2019-02-23T21:13:33.751Z,4.83
2019-02-23T21:16:03.036Z,6.00
2019-02-23T21:18:32.372Z,5.90
2019-02-23T21:21:01.588Z,4.57
2019-02-23T21:23:30.871Z,4.40
2019-02-23T21:26:00.216Z,3.77
2019-02-23T21:28:29.490Z,5.00
2019-02-23T21:30:58.927Z,4.23
2019-02-23T21:33:28.442Z,4.00
2019-02-23T21:35:57.698Z,3.83
2019-02-23T21:38:26.982Z,5.07
2019-02-23T21:40:56.327Z,3.27
2019-02-23T21:43:25.614Z,3.00
2019-02-23T21:45:54.933Z,3.10
2019-02-23T21:48:24.176Z,3.10
2019-02-23T21:50:53.385Z,3.20
2019-02-23T21:53:22.735Z,2.93
2019-02-23T21:55:52.330Z,3.30
2019-02-23T21:58:21.645Z,2.47
2019-02-23T22:00:50.919Z,2.53
2019-02-23T22:03:20.814Z,2.07
2019-02-23T22:05:49.996Z,2.73
2019-02-23T22:08:19.262Z,4.10
2019-02-23T22:10:48.540Z,3.33
2019-02-23T22:13:17.848Z,4.07
2019-02-23T22:15:47.073Z,2.33
2019-02-23T22:18:16.354Z,4.03
2019-02-23T22:20:45.573Z,2.80
2019-02-23T22:23:14.825Z,3.63
2019-02-23T22:25:44.123Z,2.70
2019-02-23T22:28:13.418Z,3.37
2019-02-23T22:30:42.557Z,2.57
2019-02-23T22:33:11.788Z,2.67
2019-02-23T22:35:41.354Z,3.73
2019-02-23T22:38:10.595Z,2.50
2019-02-23T22:40:39.824Z,2.70
2019-02-23T22:43:09.298Z,3.47
2019-02-23T22:45:38.562Z,2.83
2019-02-23T22:48:07.856Z,2.10
2019-02-23T22:50:37.136Z,2.10
2019-02-23T22:53:06.389Z,2.27
2019-02-23T22:55:35.578Z,2.87
2019-02-23T22:58:05.046Z,3.07
2019-02-23T23:00:53.222Z,2.70
2019-02-23T23:03:23.096Z,2.50
2019-02-23T23:05:52.402Z,2.43
2019-02-23T23:08:21.659Z,2.17
2019-02-23T23:10:50.892Z,2.30
2019-02-23T23:13:20.246Z,2.20
2019-02-23T23:15:49.857Z,2.13
2019-02-23T23:18:20.335Z,3.40
2019-02-23T23:20:49.735Z,2.67
2019-02-23T23:23:18.949Z,3.47
2019-02-23T23:25:50.122Z,2.03
2019-02-23T23:28:19.408Z,2.63
2019-02-23T23:30:48.617Z,2.80
2019-02-23T23:33:17.920Z,2.63
2019-02-23T23:35:47.085Z,2.23
2019-02-23T23:38:16.365Z,2.57
2019-02-23T23:40:45.772Z,3.13
2019-02-23T23:43:16.860Z,3.00
2019-02-23T23:45:46.187Z,2.37
2019-02-23T23:48:15.519Z,2.63
2019-02-23T23:50:44.839Z,2.07
2019-02-23T23:53:15.040Z,3.40
2019-02-23T23:55:44.365Z,1.40
2019-02-23T23:58:14.308Z,2.13
